sensor_id;sensor_type;location;lat;lon;timestamp;pressure;altitude;pressure_sealevel;temperature
40245;BMP280;25963;42.694;23.600;2024-01-06T00:00:13;94981.75;;;3.50
40245;BMP280;25963;42.694;23.600;2024-01-06T00:02:38;94988.94;;;3.50
40245;BMP280;25963;42.694;23.600;2024-01-06T00:05:05;94965.19;;;3.16
40245;BMP280;25963;42.694;23.600;2024-01-06T00:07:30;94999.41;;;3.41
40245;BMP280;25963;42.694;23.600;2024-01-06T00:09:56;94996.38;;;3.30
40245;BMP280;25963;42.694;23.600;2024-01-06T00:12:21;94999.00;;;3.30
40245;BMP280;25963;42.694;23.600;2024-01-06T00:14:46;95023.50;;;3.30
40245;BMP280;25963;42.694;23.600;2024-01-06T00:17:12;95033.59;;;3.32
40245;BMP280;25963;42.694;23.600;2024-01-06T00:19:37;95044.59;;;3.30
40245;BMP280;25963;42.694;23.600;2024-01-06T00:22:03;95047.22;;;3.30
40245;BMP280;25963;42.694;23.600;2024-01-06T00:24:28;95040.91;;;3.28
40245;BMP280;25963;42.694;23.600;2024-01-06T00:26:54;95024.44;;;3.24
40245;BMP280;25963;42.694;23.600;2024-01-06T00:29:19;95023.69;;;3.23
40245;BMP280;25963;42.694;23.600;2024-01-06T00:31:45;95016.22;;;3.22
40245;BMP280;25963;42.694;23.600;2024-01-06T00:34:10;95014.97;;;3.14
40245;BMP280;25963;42.694;23.600;2024-01-06T00:36:35;95025.09;;;3.15
40245;BMP280;25963;42.694;23.600;2024-01-06T00:39:01;95017.31;;;3.12
40245;BMP280;25963;42.694;23.600;2024-01-06T00:41:26;95016.13;;;3.00
40245;BMP280;25963;42.694;23.600;2024-01-06T00:43:52;94999.78;;;3.05
40245;BMP280;25963;42.694;23.600;2024-01-06T00:46:17;95006.94;;;3.04
40245;BMP280;25963;42.694;23.600;2024-01-06T00:48:43;95002.53;;;3.01
40245;BMP280;25963;42.694;23.600;2024-01-06T00:51:08;94988.38;;;2.95
40245;BMP280;25963;42.694;23.600;2024-01-06T00:53:34;94995.81;;;2.88
40245;BMP280;25963;42.694;23.600;2024-01-06T00:55:59;95033.94;;;2.96
40245;BMP280;25963;42.694;23.600;2024-01-06T00:58:24;95030.25;;;2.93
40245;BMP280;25963;42.694;23.600;2024-01-06T01:00:50;95037.34;;;2.84
40245;BMP280;25963;42.694;23.600;2024-01-06T01:03:15;95040.50;;;2.79
40245;BMP280;25963;42.694;23.600;2024-01-06T01:05:40;94996.09;;;2.39
40245;BMP280;25963;42.694;23.600;2024-01-06T01:08:06;95033.00;;;2.65
40245;BMP280;25963;42.694;23.600;2024-01-06T01:10:31;95037.00;;;2.57
40245;BMP280;25963;42.694;23.600;2024-01-06T01:12:57;95030.88;;;2.60
40245;BMP280;25963;42.694;23.600;2024-01-06T01:15:22;95042.38;;;2.53
40245;BMP280;25963;42.694;23.600;2024-01-06T01:17:48;95042.38;;;2.53
40245;BMP280;25963;42.694;23.600;2024-01-06T01:20:13;95044.56;;;2.55
40245;BMP280;25963;42.694;23.600;2024-01-06T01:22:38;95033.41;;;2.51
40245;BMP280;25963;42.694;23.600;2024-01-06T01:25:04;95028.31;;;2.43
40245;BMP280;25963;42.694;23.600;2024-01-06T01:27:33;95018.22;;;2.42
40245;BMP280;25963;42.694;23.600;2024-01-06T01:29:59;94980.75;;;2.09
40245;BMP280;25963;42.694;23.600;2024-01-06T01:32:24;95030.72;;;2.38
40245;BMP280;25963;42.694;23.600;2024-01-06T01:34:50;95030.84;;;2.34
40245;BMP280;25963;42.694;23.600;2024-01-06T01:37:15;95027.22;;;2.28
40245;BMP280;25963;42.694;23.600;2024-01-06T01:39:41;95025.97;;;2.20
40245;BMP280;25963;42.694;23.600;2024-01-06T01:42:06;94984.50;;;1.96
40245;BMP280;25963;42.694;23.600;2024-01-06T01:44:32;95004.25;;;2.16
40245;BMP280;25963;42.694;23.600;2024-01-06T01:46:58;95001.00;;;2.12
40245;BMP280;25963;42.694;23.600;2024-01-06T01:49:24;94994.28;;;1.95
40245;BMP280;25963;42.694;23.600;2024-01-06T01:51:50;95008.00;;;2.03
40245;BMP280;25963;42.694;23.600;2024-01-06T01:54:16;94952.31;;;1.63
40245;BMP280;25963;42.694;23.600;2024-01-06T01:56:42;94989.19;;;1.88
40245;BMP280;25963;42.694;23.600;2024-01-06T01:59:12;94982.47;;;1.87
40245;BMP280;25963;42.694;23.600;2024-01-06T02:01:41;94985.50;;;1.85
40245;BMP280;25963;42.694;23.600;2024-01-06T02:04:08;94978.13;;;1.80
40245;BMP280;25963;42.694;23.600;2024-01-06T02:06:33;94967.47;;;1.71
40245;BMP280;25963;42.694;23.600;2024-01-06T02:08:59;94966.75;;;1.71
40245;BMP280;25963;42.694;23.600;2024-01-06T02:11:24;94964.13;;;1.71
40245;BMP280;25963;42.694;23.600;2024-01-06T02:13:50;94958.44;;;1.72
40245;BMP280;25963;42.694;23.600;2024-01-06T02:16:15;94972.97;;;1.77
40245;BMP280;25963;42.694;23.600;2024-01-06T02:18:41;94978.88;;;1.81
40245;BMP280;25963;42.694;23.600;2024-01-06T02:21:06;94965.50;;;1.75
40245;BMP280;25963;42.694;23.600;2024-01-06T02:23:34;94961.38;;;1.74
40245;BMP280;25963;42.694;23.600;2024-01-06T02:26:00;94966.88;;;1.80
40245;BMP280;25963;42.694;23.600;2024-01-06T02:28:27;94885.34;;;1.23
40245;BMP280;25963;42.694;23.600;2024-01-06T02:30:52;94913.09;;;1.52
40245;BMP280;25963;42.694;23.600;2024-01-06T02:33:18;94953.53;;;1.87
40245;BMP280;25963;42.694;23.600;2024-01-06T02:35:45;94953.19;;;1.85
40245;BMP280;25963;42.694;23.600;2024-01-06T02:38:11;94949.72;;;1.88
40245;BMP280;25963;42.694;23.600;2024-01-06T02:40:36;94949.72;;;1.88
40245;BMP280;25963;42.694;23.600;2024-01-06T02:43:02;94937.31;;;1.89
40245;BMP280;25963;42.694;23.600;2024-01-06T02:45:27;94934.16;;;1.94
40245;BMP280;25963;42.694;23.600;2024-01-06T02:47:52;94925.88;;;1.95
40245;BMP280;25963;42.694;23.600;2024-01-06T02:50:18;94929.56;;;1.98
40245;BMP280;25963;42.694;23.600;2024-01-06T02:52:44;94865.81;;;1.65
40245;BMP280;25963;42.694;23.600;2024-01-06T02:55:10;94907.13;;;1.93
40245;BMP280;25963;42.694;23.600;2024-01-06T02:57:37;94907.66;;;2.01
40245;BMP280;25963;42.694;23.600;2024-01-06T03:00:02;94911.44;;;2.00
40245;BMP280;25963;42.694;23.600;2024-01-06T03:02:28;94897.53;;;1.99
40245;BMP280;25963;42.694;23.600;2024-01-06T03:04:54;94893.75;;;2.00
40245;BMP280;25963;42.694;23.600;2024-01-06T03:07:20;94900.00;;;2.06
40245;BMP280;25963;42.694;23.600;2024-01-06T03:09:45;94898.81;;;2.07
40245;BMP280;25963;42.694;23.600;2024-01-06T03:12:11;94869.72;;;1.85
40245;BMP280;25963;42.694;23.600;2024-01-06T03:14:37;94883.16;;;2.16
40245;BMP280;25963;42.694;23.600;2024-01-06T03:17:03;94891.38;;;2.18
40245;BMP280;25963;42.694;23.600;2024-01-06T03:19:30;94875.69;;;2.15
40245;BMP280;25963;42.694;23.600;2024-01-06T03:21:55;94887.69;;;2.16
40245;BMP280;25963;42.694;23.600;2024-01-06T03:24:22;94879.69;;;2.19
40245;BMP280;25963;42.694;23.600;2024-01-06T03:26:48;94880.13;;;2.18
40245;BMP280;25963;42.694;23.600;2024-01-06T03:29:13;94883.81;;;2.20
40245;BMP280;25963;42.694;23.600;2024-01-06T03:31:45;94877.06;;;2.19
40245;BMP280;25963;42.694;23.600;2024-01-06T03:34:11;94884.13;;;2.22
40245;BMP280;25963;42.694;23.600;2024-01-06T03:36:37;94876.97;;;2.23
40245;BMP280;25963;42.694;23.600;2024-01-06T03:39:03;94875.69;;;2.15
40245;BMP280;25963;42.694;23.600;2024-01-06T03:41:28;94876.44;;;2.15
40245;BMP280;25963;42.694;23.600;2024-01-06T03:43:53;94890.22;;;2.19
40245;BMP280;25963;42.694;23.600;2024-01-06T03:46:19;94874.28;;;2.10
40245;BMP280;25963;42.694;23.600;2024-01-06T03:48:44;94895.78;;;2.21
40245;BMP280;25963;42.694;23.600;2024-01-06T03:51:12;94884.63;;;2.17
40245;BMP280;25963;42.694;23.600;2024-01-06T03:53:37;94897.81;;;2.17
40245;BMP280;25963;42.694;23.600;2024-01-06T03:56:03;94891.78;;;2.17
40245;BMP280;25963;42.694;23.600;2024-01-06T03:58:29;94892.94;;;2.16
40245;BMP280;25963;42.694;23.600;2024-01-06T04:00:54;94890.75;;;2.14
40245;BMP280;25963;42.694;23.600;2024-01-06T04:03:20;94911.06;;;2.14
40245;BMP280;25963;42.694;23.600;2024-01-06T04:05:46;94912.44;;;2.18
40245;BMP280;25963;42.694;23.600;2024-01-06T04:08:11;94891.78;;;2.17
40245;BMP280;25963;42.694;23.600;2024-01-06T04:10:36;94890.53;;;2.21
40245;BMP280;25963;42.694;23.600;2024-01-06T04:13:02;94831.63;;;1.77
40245;BMP280;25963;42.694;23.600;2024-01-06T04:15:27;94879.47;;;2.14
40245;BMP280;25963;42.694;23.600;2024-01-06T04:17:54;94869.88;;;2.07
40245;BMP280;25963;42.694;23.600;2024-01-06T04:20:19;94877.75;;;2.07
40245;BMP280;25963;42.694;23.600;2024-01-06T04:22:45;94902.41;;;2.13
40245;BMP280;25963;42.694;23.600;2024-01-06T04:25:13;94865.03;;;1.93
40245;BMP280;25963;42.694;23.600;2024-01-06T04:27:38;94886.00;;;2.09
40245;BMP280;25963;42.694;23.600;2024-01-06T04:30:04;94891.13;;;2.13
40245;BMP280;25963;42.694;23.600;2024-01-06T04:32:29;94876.31;;;2.19
40245;BMP280;25963;42.694;23.600;2024-01-06T04:34:55;94868.84;;;2.17
40245;BMP280;25963;42.694;23.600;2024-01-06T04:37:22;94872.53;;;2.20
40245;BMP280;25963;42.694;23.600;2024-01-06T04:39:47;94857.56;;;2.17
40245;BMP280;25963;42.694;23.600;2024-01-06T04:42:13;94870.53;;;2.24
40245;BMP280;25963;42.694;23.600;2024-01-06T04:44:38;94870.13;;;2.25
40245;BMP280;25963;42.694;23.600;2024-01-06T04:47:03;94892.41;;;2.33
40245;BMP280;25963;42.694;23.600;2024-01-06T04:49:29;94890.09;;;2.35
40245;BMP280;25963;42.694;23.600;2024-01-06T04:51:54;94894.22;;;2.36
40245;BMP280;25963;42.694;23.600;2024-01-06T04:54:21;94887.69;;;2.41
40245;BMP280;25963;42.694;23.600;2024-01-06T04:56:46;94893.91;;;2.47
40245;BMP280;25963;42.694;23.600;2024-01-06T04:59:11;94900.22;;;2.50
40245;BMP280;25963;42.694;23.600;2024-01-06T05:01:37;94894.75;;;2.44
40245;BMP280;25963;42.694;23.600;2024-01-06T05:04:02;94884.09;;;2.47
40245;BMP280;25963;42.694;23.600;2024-01-06T05:06:28;94894.94;;;2.50
40245;BMP280;25963;42.694;23.600;2024-01-06T05:08:53;94871.13;;;2.40
40245;BMP280;25963;42.694;23.600;2024-01-06T05:11:19;94874.19;;;2.39
40245;BMP280;25963;42.694;23.600;2024-01-06T05:13:44;94875.91;;;2.45
40245;BMP280;25963;42.694;23.600;2024-01-06T05:16:10;94884.31;;;2.40
40245;BMP280;25963;42.694;23.600;2024-01-06T05:18:35;94895.66;;;2.37
40245;BMP280;25963;42.694;23.600;2024-01-06T05:21:01;94896.09;;;2.36
40245;BMP280;25963;42.694;23.600;2024-01-06T05:23:27;94903.56;;;2.37
40245;BMP280;25963;42.694;23.600;2024-01-06T05:25:52;94886.31;;;2.36
40245;BMP280;25963;42.694;23.600;2024-01-06T05:28:17;94835.97;;;1.97
40245;BMP280;25963;42.694;23.600;2024-01-06T05:30:43;94866.53;;;2.19
40245;BMP280;25963;42.694;23.600;2024-01-06T05:33:12;94870.84;;;2.26
40245;BMP280;25963;42.694;23.600;2024-01-06T05:35:39;94880.66;;;2.25
40245;BMP280;25963;42.694;23.600;2024-01-06T05:38:04;94870.63;;;2.20
40245;BMP280;25963;42.694;23.600;2024-01-06T05:40:29;94879.91;;;2.12
40245;BMP280;25963;42.694;23.600;2024-01-06T05:42:55;94871.56;;;2.01
40245;BMP280;25963;42.694;23.600;2024-01-06T05:45:22;94884.19;;;2.06
40245;BMP280;25963;42.694;23.600;2024-01-06T05:47:47;94855.31;;;1.90
40245;BMP280;25963;42.694;23.600;2024-01-06T05:50:15;94879.13;;;1.99
40245;BMP280;25963;42.694;23.600;2024-01-06T05:52:41;94868.56;;;1.87
40245;BMP280;25963;42.694;23.600;2024-01-06T05:55:06;94876.38;;;1.90
40245;BMP280;25963;42.694;23.600;2024-01-06T05:57:32;94865.75;;;1.81
40245;BMP280;25963;42.694;23.600;2024-01-06T05:59:58;94836.38;;;1.70
40245;BMP280;25963;42.694;23.600;2024-01-06T06:02:24;94837.94;;;1.67
40245;BMP280;25963;42.694;23.600;2024-01-06T06:04:49;94832.97;;;1.57
40245;BMP280;25963;42.694;23.600;2024-01-06T06:07:15;94856.56;;;1.73
40245;BMP280;25963;42.694;23.600;2024-01-06T06:09:40;94848.53;;;1.64
40245;BMP280;25963;42.694;23.600;2024-01-06T06:12:06;94858.69;;;1.78
40245;BMP280;25963;42.694;23.600;2024-01-06T06:14:31;94852.38;;;1.75
40245;BMP280;25963;42.694;23.600;2024-01-06T06:16:57;94808.28;;;1.38
40245;BMP280;25963;42.694;23.600;2024-01-06T06:19:22;94770.09;;;1.34
40245;BMP280;25963;42.694;23.600;2024-01-06T06:21:48;94832.81;;;1.76
40245;BMP280;25963;42.694;23.600;2024-01-06T06:24:13;94855.84;;;1.85
40245;BMP280;25963;42.694;23.600;2024-01-06T06:26:39;94856.16;;;1.87
40245;BMP280;25963;42.694;23.600;2024-01-06T06:29:04;94851.88;;;1.93
40245;BMP280;25963;42.694;23.600;2024-01-06T06:31:29;94817.84;;;1.73
40245;BMP280;25963;42.694;23.600;2024-01-06T06:33:55;94813.31;;;1.74
40245;BMP280;25963;42.694;23.600;2024-01-06T06:36:20;94812.91;;;1.75
40245;BMP280;25963;42.694;23.600;2024-01-06T06:38:46;94857.66;;;2.13
40245;BMP280;25963;42.694;23.600;2024-01-06T06:41:11;94853.88;;;2.14
40245;BMP280;25963;42.694;23.600;2024-01-06T06:43:37;94839.34;;;2.10
40245;BMP280;25963;42.694;23.600;2024-01-06T06:46:02;94797.66;;;1.83
40245;BMP280;25963;42.694;23.600;2024-01-06T06:48:28;94846.94;;;2.20
40245;BMP280;25963;42.694;23.600;2024-01-06T06:50:53;94861.97;;;2.32
40245;BMP280;25963;42.694;23.600;2024-01-06T06:53:19;94850.28;;;2.33
40245;BMP280;25963;42.694;23.600;2024-01-06T06:55:44;94855.03;;;2.38
40245;BMP280;25963;42.694;23.600;2024-01-06T06:58:09;94812.50;;;2.15
40245;BMP280;25963;42.694;23.600;2024-01-06T07:00:35;94806.72;;;2.20
40245;BMP280;25963;42.694;23.600;2024-01-06T07:03:01;94837.66;;;2.54
40245;BMP280;25963;42.694;23.600;2024-01-06T07:05:26;94827.94;;;2.51
40245;BMP280;25963;42.694;23.600;2024-01-06T07:07:51;94835.69;;;2.67
40245;BMP280;25963;42.694;23.600;2024-01-06T07:10:17;94842.97;;;2.75
40245;BMP280;25963;42.694;23.600;2024-01-06T07:12:42;94839.78;;;2.80
40245;BMP280;25963;42.694;23.600;2024-01-06T07:15:08;94853.16;;;2.86
40245;BMP280;25963;42.694;23.600;2024-01-06T07:17:37;94795.88;;;2.65
40245;BMP280;25963;42.694;23.600;2024-01-06T07:20:06;94845.94;;;2.99
40245;BMP280;25963;42.694;23.600;2024-01-06T07:22:33;94846.44;;;3.06
40245;BMP280;25963;42.694;23.600;2024-01-06T07:25:00;94852.25;;;3.14
40245;BMP280;25963;42.694;23.600;2024-01-06T07:27:26;94845.25;;;3.20
40245;BMP280;25963;42.694;23.600;2024-01-06T07:29:51;94846.53;;;3.16
40245;BMP280;25963;42.694;23.600;2024-01-06T07:32:17;94861.31;;;3.35
40245;BMP280;25963;42.694;23.600;2024-01-06T07:34:42;94829.44;;;3.20
40245;BMP280;25963;42.694;23.600;2024-01-06T07:37:09;94861.44;;;3.53
40245;BMP280;25963;42.694;23.600;2024-01-06T07:39:34;94845.78;;;3.58
40245;BMP280;25963;42.694;23.600;2024-01-06T07:42:00;94823.28;;;3.66
40245;BMP280;25963;42.694;23.600;2024-01-06T07:44:25;94856.50;;;3.86
40245;BMP280;25963;42.694;23.600;2024-01-06T07:46:51;94850.22;;;3.92
40245;BMP280;25963;42.694;23.600;2024-01-06T07:49:17;94857.31;;;4.04
40245;BMP280;25963;42.694;23.600;2024-01-06T07:51:42;94855.75;;;4.16
40245;BMP280;25963;42.694;23.600;2024-01-06T07:54:07;94843.56;;;4.18
40245;BMP280;25963;42.694;23.600;2024-01-06T07:56:37;94868.13;;;4.37
40245;BMP280;25963;42.694;23.600;2024-01-06T07:59:03;94855.94;;;4.39
40245;BMP280;25963;42.694;23.600;2024-01-06T08:01:29;94818.63;;;4.19
40245;BMP280;25963;42.694;23.600;2024-01-06T08:03:54;94835.84;;;4.42
40245;BMP280;25963;42.694;23.600;2024-01-06T08:06:20;94852.50;;;4.61
40245;BMP280;25963;42.694;23.600;2024-01-06T08:08:45;94854.69;;;4.71
40245;BMP280;25963;42.694;23.600;2024-01-06T08:11:11;94821.03;;;4.54
40245;BMP280;25963;42.694;23.600;2024-01-06T08:13:37;94855.59;;;4.86
40245;BMP280;25963;42.694;23.600;2024-01-06T08:16:03;94848.13;;;4.94
40245;BMP280;25963;42.694;23.600;2024-01-06T08:18:28;94851.78;;;5.05
40245;BMP280;25963;42.694;23.600;2024-01-06T08:20:54;94851.63;;;5.09
40245;BMP280;25963;42.694;23.600;2024-01-06T08:23:19;94816.41;;;4.85
40245;BMP280;25963;42.694;23.600;2024-01-06T08:25:45;94854.59;;;5.20
40245;BMP280;25963;42.694;23.600;2024-01-06T08:28:11;94840.19;;;5.12
40245;BMP280;25963;42.694;23.600;2024-01-06T08:30:37;94856.50;;;5.20
40245;BMP280;25963;42.694;23.600;2024-01-06T08:33:02;94851.78;;;5.24
40245;BMP280;25963;42.694;23.600;2024-01-06T08:35:28;94837.81;;;5.23
40245;BMP280;25963;42.694;23.600;2024-01-06T08:37:53;94846.78;;;5.26
40245;BMP280;25963;42.694;23.600;2024-01-06T08:40:19;94846.19;;;5.31
40245;BMP280;25963;42.694;23.600;2024-01-06T08:42:44;94851.91;;;5.38
40245;BMP280;25963;42.694;23.600;2024-01-06T08:45:10;94797.13;;;5.21
40245;BMP280;25963;42.694;23.600;2024-01-06T08:47:35;94831.44;;;5.57
40245;BMP280;25963;42.694;23.600;2024-01-06T08:50:00;94835.69;;;5.63
40245;BMP280;25963;42.694;23.600;2024-01-06T08:52:26;94833.47;;;5.71
40245;BMP280;25963;42.694;23.600;2024-01-06T08:54:51;94842.72;;;5.75
40245;BMP280;25963;42.694;23.600;2024-01-06T08:57:17;94800.31;;;5.52
40245;BMP280;25963;42.694;23.600;2024-01-06T08:59:43;94841.09;;;5.78
40245;BMP280;25963;42.694;23.600;2024-01-06T09:02:10;94811.16;;;5.54
40245;BMP280;25963;42.694;23.600;2024-01-06T09:04:36;94830.25;;;5.67
40245;BMP280;25963;42.694;23.600;2024-01-06T09:07:01;94830.63;;;5.74
40245;BMP280;25963;42.694;23.600;2024-01-06T09:09:26;94820.53;;;5.64
40245;BMP280;25963;42.694;23.600;2024-01-06T09:11:53;94784.13;;;5.41
40245;BMP280;25963;42.694;23.600;2024-01-06T09:14:19;94789.13;;;5.48
40245;BMP280;25963;42.694;23.600;2024-01-06T09:16:44;94786.47;;;5.48
40245;BMP280;25963;42.694;23.600;2024-01-06T09:19:10;94815.50;;;5.75
40245;BMP280;25963;42.694;23.600;2024-01-06T09:21:35;94794.66;;;5.68
40245;BMP280;25963;42.694;23.600;2024-01-06T09:24:01;94799.69;;;5.90
40245;BMP280;25963;42.694;23.600;2024-01-06T09:26:31;94791.75;;;6.22
40245;BMP280;25963;42.694;23.600;2024-01-06T09:28:57;94795.09;;;6.46
40245;BMP280;25963;42.694;23.600;2024-01-06T09:31:22;94785.81;;;6.66
40245;BMP280;25963;42.694;23.600;2024-01-06T09:33:49;94787.69;;;6.74
40245;BMP280;25963;42.694;23.600;2024-01-06T09:36:15;94735.66;;;6.62
40245;BMP280;25963;42.694;23.600;2024-01-06T09:38:40;94781.78;;;7.08
40245;BMP280;25963;42.694;23.600;2024-01-06T09:41:06;94769.44;;;7.20
40245;BMP280;25963;42.694;23.600;2024-01-06T09:43:31;94775.19;;;7.33
40245;BMP280;25963;42.694;23.600;2024-01-06T09:46:05;94762.38;;;7.46
40245;BMP280;25963;42.694;23.600;2024-01-06T09:48:35;94768.09;;;7.59
40245;BMP280;25963;42.694;23.600;2024-01-06T09:51:06;94766.88;;;7.75
40245;BMP280;25963;42.694;23.600;2024-01-06T09:53:36;94770.69;;;7.88
40245;BMP280;25963;42.694;23.600;2024-01-06T09:56:05;94760.53;;;8.07
40245;BMP280;25963;42.694;23.600;2024-01-06T09:58:33;94764.34;;;8.21
40245;BMP280;25963;42.694;23.600;2024-01-06T10:01:00;94756.25;;;8.30
40245;BMP280;25963;42.694;23.600;2024-01-06T10:03:26;94750.31;;;8.40
40245;BMP280;25963;42.694;23.600;2024-01-06T10:05:52;94760.34;;;8.51
40245;BMP280;25963;42.694;23.600;2024-01-06T10:08:18;94749.09;;;8.61
40245;BMP280;25963;42.694;23.600;2024-01-06T10:10:44;94741.72;;;8.51
40245;BMP280;25963;42.694;23.600;2024-01-06T10:13:10;94752.75;;;8.64
40245;BMP280;25963;42.694;23.600;2024-01-06T10:15:36;94709.06;;;8.50
40245;BMP280;25963;42.694;23.600;2024-01-06T10:18:01;94734.25;;;8.81
40245;BMP280;25963;42.694;23.600;2024-01-06T10:20:28;94691.22;;;8.56
40245;BMP280;25963;42.694;23.600;2024-01-06T10:22:54;94714.25;;;8.85
40245;BMP280;25963;42.694;23.600;2024-01-06T10:25:23;94708.28;;;8.96
40245;BMP280;25963;42.694;23.600;2024-01-06T10:27:49;94716.50;;;8.98
40245;BMP280;25963;42.694;23.600;2024-01-06T10:30:14;94714.69;;;9.09
40245;BMP280;25963;42.694;23.600;2024-01-06T10:32:43;94714.50;;;9.18
40245;BMP280;25963;42.694;23.600;2024-01-06T10:35:09;94699.53;;;9.21
40245;BMP280;25963;42.694;23.600;2024-01-06T10:37:35;94700.06;;;9.30
40245;BMP280;25963;42.694;23.600;2024-01-06T10:40:10;94706.41;;;9.38
40245;BMP280;25963;42.694;23.600;2024-01-06T10:42:36;94688.25;;;9.42
40245;BMP280;25963;42.694;23.600;2024-01-06T10:45:02;94692.66;;;9.45
40245;BMP280;25963;42.694;23.600;2024-01-06T10:47:29;94690.00;;;9.45
40245;BMP280;25963;42.694;23.600;2024-01-06T10:49:59;94676.19;;;9.47
40245;BMP280;25963;42.694;23.600;2024-01-06T10:52:27;94669.19;;;9.49
40245;BMP280;25963;42.694;23.600;2024-01-06T10:54:53;94667.47;;;9.46
40245;BMP280;25963;42.694;23.600;2024-01-06T10:57:19;94664.34;;;9.53
40245;BMP280;25963;42.694;23.600;2024-01-06T10:59:49;94666.25;;;9.47
40245;BMP280;25963;42.694;23.600;2024-01-06T11:02:15;94658.22;;;9.36
40245;BMP280;25963;42.694;23.600;2024-01-06T11:04:43;94615.44;;;9.09
40245;BMP280;25963;42.694;23.600;2024-01-06T11:07:09;94663.06;;;9.43
40245;BMP280;25963;42.694;23.600;2024-01-06T11:09:37;94660.94;;;9.47
40245;BMP280;25963;42.694;23.600;2024-01-06T11:12:04;94582.97;;;8.99
40245;BMP280;25963;42.694;23.600;2024-01-06T11:14:36;94643.47;;;9.46
40245;BMP280;25963;42.694;23.600;2024-01-06T11:17:02;94641.09;;;9.48
40245;BMP280;25963;42.694;23.600;2024-01-06T11:24:54;94638.34;;;9.32
40245;BMP280;25963;42.694;23.600;2024-01-06T11:27:24;94632.56;;;9.39
40245;BMP280;25963;42.694;23.600;2024-01-06T11:29:59;94627.19;;;9.33
40245;BMP280;25963;42.694;23.600;2024-01-06T11:32:44;94622.81;;;9.30
40245;BMP280;25963;42.694;23.600;2024-01-06T11:35:13;94602.44;;;9.22
40245;BMP280;25963;42.694;23.600;2024-01-06T11:43:00;94609.28;;;9.34
40245;BMP280;25963;42.694;23.600;2024-01-06T11:45:27;94594.53;;;9.38
40245;BMP280;25963;42.694;23.600;2024-01-06T11:47:58;94590.94;;;9.47
40245;BMP280;25963;42.694;23.600;2024-01-06T11:50:28;94578.66;;;9.72
40245;BMP280;25963;42.694;23.600;2024-01-06T11:52:54;94563.22;;;9.87
40245;BMP280;25963;42.694;23.600;2024-01-06T11:55:21;94578.28;;;10.01
40245;BMP280;25963;42.694;23.600;2024-01-06T11:57:47;94568.31;;;10.07
40245;BMP280;25963;42.694;23.600;2024-01-06T12:00:13;94577.06;;;10.24
40245;BMP280;25963;42.694;23.600;2024-01-06T12:02:41;94558.91;;;10.50
40245;BMP280;25963;42.694;23.600;2024-01-06T12:05:13;94554.00;;;10.54
40245;BMP280;25963;42.694;23.600;2024-01-06T12:07:40;94546.53;;;10.47
40245;BMP280;25963;42.694;23.600;2024-01-06T12:10:07;94544.81;;;10.44
40245;BMP280;25963;42.694;23.600;2024-01-06T12:12:33;94516.47;;;10.24
40245;BMP280;25963;42.694;23.600;2024-01-06T12:14:58;94538.97;;;10.46
40245;BMP280;25963;42.694;23.600;2024-01-06T12:17:28;94520.81;;;10.50
40245;BMP280;25963;42.694;23.600;2024-01-06T12:19:54;94503.06;;;10.52
40245;BMP280;25963;42.694;23.600;2024-01-06T12:22:19;94522.94;;;10.73
40245;BMP280;25963;42.694;23.600;2024-01-06T12:24:49;94517.38;;;10.66
40245;BMP280;25963;42.694;23.600;2024-01-06T12:27:16;94505.50;;;10.61
40245;BMP280;25963;42.694;23.600;2024-01-06T12:29:42;94488.06;;;10.49
40245;BMP280;25963;42.694;23.600;2024-01-06T12:32:09;94488.53;;;10.53
40245;BMP280;25963;42.694;23.600;2024-01-06T12:34:34;94482.25;;;10.51
40245;BMP280;25963;42.694;23.600;2024-01-06T12:37:00;94489.25;;;10.48
40245;BMP280;25963;42.694;23.600;2024-01-06T12:39:29;94494.34;;;10.46
40245;BMP280;25963;42.694;23.600;2024-01-06T12:41:56;94503.59;;;10.45
40245;BMP280;25963;42.694;23.600;2024-01-06T12:44:21;94500.44;;;10.47
40245;BMP280;25963;42.694;23.600;2024-01-06T12:46:48;94499.25;;;10.42
40245;BMP280;25963;42.694;23.600;2024-01-06T12:49:14;94494.13;;;10.38
40245;BMP280;25963;42.694;23.600;2024-01-06T12:51:40;94505.03;;;10.46
40245;BMP280;25963;42.694;23.600;2024-01-06T12:54:05;94512.81;;;10.50
40245;BMP280;25963;42.694;23.600;2024-01-06T12:56:31;94484.19;;;10.28
40245;BMP280;25963;42.694;23.600;2024-01-06T12:58:56;94446.66;;;10.15
40245;BMP280;25963;42.694;23.600;2024-01-06T13:01:22;94494.38;;;10.52
40245;BMP280;25963;42.694;23.600;2024-01-06T13:03:48;94481.72;;;10.63
40245;BMP280;25963;42.694;23.600;2024-01-06T13:06:13;94495.28;;;10.76
40245;BMP280;25963;42.694;23.600;2024-01-06T13:08:41;94487.69;;;10.97
40245;BMP280;25963;42.694;23.600;2024-01-06T13:11:06;94497.31;;;11.16
40245;BMP280;25963;42.694;23.600;2024-01-06T13:13:32;94469.16;;;11.10
40245;BMP280;25963;42.694;23.600;2024-01-06T13:15:57;94491.50;;;11.53
40245;BMP280;25963;42.694;23.600;2024-01-06T13:18:23;94478.66;;;11.57
40245;BMP280;25963;42.694;23.600;2024-01-06T13:20:48;94491.63;;;11.77
40245;BMP280;25963;42.694;23.600;2024-01-06T13:23:14;94488.88;;;11.88
40245;BMP280;25963;42.694;23.600;2024-01-06T13:25:40;94484.94;;;11.95
40245;BMP280;25963;42.694;23.600;2024-01-06T13:28:07;94472.28;;;11.95
40245;BMP280;25963;42.694;23.600;2024-01-06T13:30:32;94470.97;;;12.07
40245;BMP280;25963;42.694;23.600;2024-01-06T13:32:58;94442.13;;;11.95
40245;BMP280;25963;42.694;23.600;2024-01-06T13:35:24;94472.78;;;12.24
40245;BMP280;25963;42.694;23.600;2024-01-06T13:37:53;94472.72;;;12.29
40245;BMP280;25963;42.694;23.600;2024-01-06T13:40:21;94452.41;;;12.15
40245;BMP280;25963;42.694;23.600;2024-01-06T13:42:48;94400.00;;;11.77
40245;BMP280;25963;42.694;23.600;2024-01-06T13:45:13;94460.88;;;12.19
40245;BMP280;25963;42.694;23.600;2024-01-06T13:47:39;94442.50;;;12.10
40245;BMP280;25963;42.694;23.600;2024-01-06T13:50:13;94439.41;;;12.00
40245;BMP280;25963;42.694;23.600;2024-01-06T13:52:39;94444.31;;;11.96
40245;BMP280;25963;42.694;23.600;2024-01-06T13:55:05;94443.44;;;11.88
40245;BMP280;25963;42.694;23.600;2024-01-06T13:57:31;94429.88;;;11.75
40245;BMP280;25963;42.694;23.600;2024-01-06T13:59:57;94434.28;;;11.73
40245;BMP280;25963;42.694;23.600;2024-01-06T14:02:23;94421.47;;;11.66
40245;BMP280;25963;42.694;23.600;2024-01-06T14:04:49;94400.78;;;11.37
40245;BMP280;25963;42.694;23.600;2024-01-06T14:07:14;94413.63;;;11.38
40245;BMP280;25963;42.694;23.600;2024-01-06T14:09:40;94433.59;;;11.37